WetterOnline ( https://www.wetteronline.de )

Wetter aktuell Dietmannsried

Aktuelles Wetter: Kempten (705m)

6-stündlich | Neueste Meldungen
Ortszeit Temperatur Wetter
Do, 20.06. 2:00 18.1° C fast wolkenlos
Mi, 19.06. 20:00 27.4° C wolkig
Mi, 19.06. 14:00 27.3° C wolkenlos
Mi, 19.06. 8:00 18.4° C fast wolkenlos
Mi, 19.06. 2:00 13.5° C leicht bewölkt
Di, 18.06. 20:00 25.8° C leicht bewölkt
Di, 18.06. 14:00 28.5° C leicht bewölkt
Di, 18.06. 8:00 16.3° C leicht bewölkt
Ortszeit Temperatur Wetter
Do, 20.06. 6:30 17.0° C bewölkt
Do, 20.06. 6:20 17.0° C bewölkt
Do, 20.06. 6:10 17.1° C bewölkt
Do, 20.06. 6:00 17.2° C bewölkt
Do, 20.06. 5:50 17.2° C bewölkt
Do, 20.06. 5:40 17.2° C bedeckt
Do, 20.06. 5:30 17.4° C bedeckt
Do, 20.06. 5:00 17.5° C bewölkt
Do, 20.06. 4:30 17.5° C bewölkt
Do, 20.06. 4:00 18.0° C bewölkt
Do, 20.06. 3:30 18.1° C bedeckt
Ortszeit Relative Feuchte Sichtweite
Do, 20.06. 2:00 89% 30 km
Mi, 19.06. 20:00 47% 35 km
Mi, 19.06. 14:00 49% 45 km
Mi, 19.06. 8:00 68% 45 km
Mi, 19.06. 2:00 90% 45 km
Di, 18.06. 20:00 44% 65 km
Di, 18.06. 14:00 26% 45 km
Di, 18.06. 8:00 79% 50 km
Ortszeit Relative Feuchte Sichtweite
Do, 20.06. 6:30 88% 30 km
Do, 20.06. 6:20 88% -
Do, 20.06. 6:10 87% -
Do, 20.06. 6:00 87% 30 km
Do, 20.06. 5:50 87% -
Do, 20.06. 5:40 87% -
Do, 20.06. 5:30 87% 35 km
Do, 20.06. 5:00 88% 35 km
Do, 20.06. 4:30 86% 30 km
Do, 20.06. 4:00 85% 35 km
Do, 20.06. 3:30 86% 30 km
Ortszeit Niederschlagsmenge Niederschlagsart
Do, 20.06. 2:00 0.0 l/m2 in 6 Std. -
Mi, 19.06. 20:00 0.0 l/m2 in 12 Std. -
Mi, 19.06. 14:00 0.0 l/m2 in 6 Std. -
Mi, 19.06. 8:00 0.0 l/m2 in 12 Std. -
Mi, 19.06. 2:00 0.0 l/m2 in 6 Std. -
Di, 18.06. 20:00 0.0 l/m2 in 12 Std. -
Di, 18.06. 14:00 0.0 l/m2 in 6 Std. -
Di, 18.06. 8:00 4 l/m2 in 12 Std. -
Ortszeit Niederschlagsmenge Niederschlagsart
Do, 20.06. 6:30 0.0 l/m2 in 30 Min -
Do, 20.06. 6:20 keine Meldung -
Do, 20.06. 6:10 keine Meldung -
Do, 20.06. 6:00 0.0 l/m2 in 1 Std. -
Do, 20.06. 5:50 keine Meldung -
Do, 20.06. 5:40 keine Meldung -
Do, 20.06. 5:30 0.0 l/m2 in 30 Min -
Do, 20.06. 5:00 0.0 l/m2 in 1 Std. -
Do, 20.06. 4:30 0.0 l/m2 in 30 Min -
Do, 20.06. 4:00 0.0 l/m2 in 1 Std. -
Do, 20.06. 3:30 0.0 l/m2 in 30 Min -
Ortszeit Stärke Spitze Richtung
km/h Bft. km/h Grad Sektor
Do, 20.06. 2:00 4 1 25 70° O
Mi, 19.06. 20:00 6 1 20 320° NW
Mi, 19.06. 14:00 7 2 25 20° N
Mi, 19.06. 8:00 0 0 14 - -
Mi, 19.06. 2:00 7 2 14 110° O
Di, 18.06. 20:00 6 1 22 70° O
Di, 18.06. 14:00 9 2 19 270° W
Di, 18.06. 8:00 7 2 14 120° SO
Ortszeit Stärke Spitze Richtung
km/h Bft. km/h Grad Sektor
Do, 20.06. 6:30 6 1 15 70° O
Do, 20.06. 6:20 6 1 - 70° O
Do, 20.06. 6:10 7 2 - 80° O
Do, 20.06. 6:00 7 2 14 80° O
Do, 20.06. 5:50 7 2 - 80° O
Do, 20.06. 5:40 7 2 - 80° O
Do, 20.06. 5:30 7 2 11 70° O
Do, 20.06. 5:00 4 1 14 50° NO
Do, 20.06. 4:30 7 2 14 30° NO
Do, 20.06. 4:00 7 2 14 60° NO
Do, 20.06. 3:30 6 1 15 60° NO
Ortszeit Untergrenze Bedeckung Gattung
total tief tief mittel hoch
Do, 20.06. 2:00 330 m 1/8 1/8 - - -
Mi, 19.06. 20:00 1800 m 6/8 5/8 - - -
Mi, 19.06. 14:00 - 0/8 0/8 - - -
Mi, 19.06. 8:00 10500 m 2/8 0/8 - - -
Mi, 19.06. 2:00 9000 m 5/8 0/8 - - -
Di, 18.06. 20:00 9000 m 6/8 0/8 - - -
Di, 18.06. 14:00 8700 m 3/8 0/8 - - -
Di, 18.06. 8:00 10500 m 6/8 0/8 - - -
Ortszeit Bedeckungsgrad in Achtel und Wolkenuntergrenze
Do, 20.06. 6:30 6(450m) 7(5100m) 7(6000m)
Do, 20.06. 6:20 6(450m) 7(5100m) 7(6000m)
Do, 20.06. 6:10 7
Do, 20.06. 6:00 7(390m) 8(5100m)
Do, 20.06. 5:50 7(390m) 8(5100m)
Do, 20.06. 5:40 8
Do, 20.06. 5:30 8(360m) 8(5700m)
Do, 20.06. 5:00 7(360m)
Do, 20.06. 4:30 7(450m) 7(9000m)
Do, 20.06. 4:00 7(390m)
Do, 20.06. 3:30 8(360m)
Ortszeit Luftdruck NN (hPa) Tendenz (hPa in 3 Std.)
Do, 20.06. 2:00 1017 - 0,2
Mi, 19.06. 20:00 1013 + 1,7
Mi, 19.06. 14:00 1011 + 0,3
Mi, 19.06. 8:00 1013 0,0
Mi, 19.06. 2:00 1014 + 0,5
Di, 18.06. 20:00 1010 - 0,5
Di, 18.06. 14:00 1011 - 0,9
Di, 18.06. 8:00 1016 - 0,1
Ortszeit Luftdruck NN (hPa) Tendenz (hPa in 3 Std.)
Do, 20.06. 6:30 1018 + 0,5
Do, 20.06. 6:20 1018 keine Meldung
Do, 20.06. 6:10 1018 keine Meldung
Do, 20.06. 6:00 1019 + 0,7
Do, 20.06. 5:50 1019 keine Meldung
Do, 20.06. 5:40 1019 keine Meldung
Do, 20.06. 5:30 1019 + 0,8
Do, 20.06. 5:00 1018 + 1,0
Do, 20.06. 4:30 1018 + 0,4
Do, 20.06. 4:00 1017 - 0,3
Do, 20.06. 3:30 1017 - 0,1
Ortszeit Schneehöhe (cm)
Do, 20.06. 2:00 0
Mi, 19.06. 20:00 0
Mi, 19.06. 14:00 0
Mi, 19.06. 8:00 0
Mi, 19.06. 2:00 0
Di, 18.06. 20:00 0
Di, 18.06. 14:00 0
Di, 18.06. 8:00 0
Ortszeit Schneehöhe (cm)
Do, 20.06. 6:30 0
Do, 20.06. 6:20 0
Do, 20.06. 6:10 -
Do, 20.06. 6:00 0
Do, 20.06. 5:50 0
Do, 20.06. 5:40 -
Do, 20.06. 5:30 0
Do, 20.06. 5:00 0
Do, 20.06. 4:30 0
Do, 20.06. 4:00 0
Do, 20.06. 3:30 0
Link zu dieser Seite / Seite empfehlen

Das Wetter in ...